createdAt,value
2019-05-18T00:02:33.848Z,2.60
2019-05-18T00:07:36.236Z,2.80
2019-05-18T00:12:38.610Z,2.70
2019-05-18T00:17:40.911Z,2.52
2019-05-18T00:22:43.216Z,3.00
2019-05-18T00:27:45.515Z,3.25
2019-05-18T00:32:47.823Z,2.60
2019-05-18T00:37:50.124Z,2.87
2019-05-18T00:42:52.431Z,2.40
2019-05-18T00:47:54.727Z,2.72
2019-05-18T00:52:57.030Z,2.75
2019-05-18T00:57:59.340Z,2.90
2019-05-18T01:03:01.746Z,2.33
2019-05-18T01:08:04.096Z,2.22
2019-05-18T01:13:06.396Z,2.47
2019-05-18T01:18:08.698Z,2.98
2019-05-18T01:23:11.027Z,2.55
2019-05-18T01:28:13.331Z,2.37
2019-05-18T01:33:15.637Z,2.40
2019-05-18T01:38:17.966Z,2.58
2019-05-18T01:43:20.264Z,2.50
2019-05-18T01:48:22.567Z,2.75
2019-05-18T01:53:24.867Z,2.72
2019-05-18T01:58:27.178Z,2.85
2019-05-18T02:03:29.556Z,2.60
2019-05-18T02:08:31.927Z,2.62
2019-05-18T02:13:34.236Z,2.50
2019-05-18T02:18:36.548Z,2.52
2019-05-18T02:23:38.851Z,2.60
2019-05-18T02:28:41.153Z,2.77
2019-05-18T02:33:43.460Z,2.30
2019-05-18T02:38:45.834Z,2.37
2019-05-18T02:43:48.213Z,2.70
2019-05-18T02:48:50.971Z,2.55
2019-05-18T02:53:53.425Z,2.55
2019-05-18T02:58:55.780Z,2.05
2019-05-18T03:03:58.083Z,2.50
2019-05-18T03:09:00.380Z,2.58
2019-05-18T03:14:02.773Z,2.55
2019-05-18T03:19:08.755Z,2.27
2019-05-18T03:24:09.191Z,2.30
2019-05-18T03:29:11.570Z,2.47
2019-05-18T03:34:13.889Z,2.42
2019-05-18T03:39:16.261Z,2.35
2019-05-18T03:44:18.559Z,2.02
2019-05-18T03:49:27.010Z,2.17
2019-05-18T03:54:24.896Z,2.05
2019-05-18T03:59:27.293Z,2.67
2019-05-18T04:04:29.685Z,2.17
2019-05-18T04:09:32.004Z,2.20
2019-05-18T04:14:34.324Z,2.00
2019-05-18T04:19:46.237Z,1.95
2019-05-18T04:24:40.753Z,2.10
2019-05-18T04:29:43.149Z,2.02
2019-05-18T04:34:45.471Z,2.12
2019-05-18T04:39:47.865Z,1.87
2019-05-18T04:44:50.183Z,2.65
2019-05-18T04:50:04.744Z,1.87
2019-05-18T04:54:56.675Z,1.77
2019-05-18T04:59:59.063Z,2.05
2019-05-18T05:05:01.395Z,2.35
2019-05-18T05:10:05.653Z,1.95
2019-05-18T05:15:08.032Z,2.20
2019-05-18T05:20:19.168Z,2.17
2019-05-18T05:25:14.566Z,1.95
2019-05-18T05:30:17.060Z,2.25
2019-05-18T05:35:19.385Z,1.77
2019-05-18T05:40:21.767Z,2.17
2019-05-18T05:45:24.084Z,1.90
2019-05-18T05:50:35.389Z,2.17
2019-05-18T05:55:30.449Z,1.67
2019-05-18T06:00:32.763Z,2.05
2019-05-18T06:05:35.084Z,1.90
2019-05-18T06:10:37.416Z,1.60
2019-05-18T06:15:39.731Z,1.77
2019-05-18T06:20:50.944Z,1.50
2019-05-18T06:25:46.118Z,2.02
2019-05-18T06:30:48.506Z,1.72
2019-05-18T06:35:50.897Z,3.55
2019-05-18T06:40:53.224Z,3.30
2019-05-18T06:45:55.541Z,3.33
2019-05-18T06:51:06.703Z,3.37
2019-05-18T06:56:02.152Z,4.65
2019-05-18T07:01:04.541Z,5.05
2019-05-18T07:06:06.857Z,5.12
2019-05-18T07:11:09.176Z,4.80
2019-05-18T07:16:11.504Z,4.20
2019-05-18T07:21:21.953Z,4.62
2019-05-18T07:26:18.032Z,3.75
2019-05-18T07:31:20.350Z,3.77
2019-05-18T07:36:22.671Z,3.00
2019-05-18T07:41:24.987Z,4.05
2019-05-18T07:46:27.312Z,3.90
2019-05-18T07:51:37.148Z,3.27
2019-05-18T07:56:33.740Z,3.95
2019-05-18T08:01:36.109Z,3.12
2019-05-18T08:06:38.423Z,3.35
2019-05-18T08:11:40.744Z,3.58
2019-05-18T08:16:43.073Z,3.55
2019-05-18T08:21:53.061Z,4.08
2019-05-18T08:26:49.495Z,3.95
2019-05-18T08:31:51.815Z,3.75
2019-05-18T08:36:54.140Z,4.03
2019-05-18T08:41:56.459Z,3.02
2019-05-18T08:46:58.780Z,3.42
2019-05-18T08:52:08.370Z,3.22
2019-05-18T08:57:05.140Z,3.25
2019-05-18T09:02:07.456Z,3.20
2019-05-18T09:07:09.778Z,3.42
2019-05-18T09:12:12.102Z,3.27
2019-05-18T09:17:14.488Z,3.15
2019-05-18T09:22:23.265Z,3.35
2019-05-18T09:27:20.861Z,3.52
2019-05-18T09:32:23.186Z,5.25
2019-05-18T09:37:25.503Z,4.50
2019-05-18T09:42:27.827Z,4.28
2019-05-18T09:47:30.151Z,4.30
2019-05-18T09:52:44.395Z,4.12
2019-05-18T09:57:36.511Z,5.05
2019-05-18T10:02:38.835Z,3.92
2019-05-18T10:07:41.191Z,3.65
2019-05-18T10:12:43.495Z,3.95
2019-05-18T10:17:45.800Z,5.03
2019-05-18T10:22:59.037Z,4.03
2019-05-18T10:27:52.509Z,4.22
2019-05-18T10:32:54.811Z,3.92
2019-05-18T10:37:57.119Z,3.90
2019-05-18T10:42:59.420Z,3.27
2019-05-18T10:48:01.833Z,3.70
2019-05-18T10:53:04.234Z,3.77
2019-05-18T10:58:06.599Z,3.45
2019-05-18T11:03:08.905Z,3.65
2019-05-18T11:08:11.217Z,3.42
2019-05-18T11:13:13.603Z,3.35
2019-05-18T11:18:15.972Z,3.08
2019-05-18T11:23:18.273Z,3.20
2019-05-18T11:28:20.572Z,3.00
2019-05-18T11:33:22.879Z,3.40
2019-05-18T11:38:25.200Z,2.80
2019-05-18T11:43:27.504Z,2.83
2019-05-18T11:48:29.832Z,2.75
2019-05-18T11:53:32.132Z,3.20
2019-05-18T11:58:34.507Z,2.37
2019-05-18T12:03:36.892Z,3.00
2019-05-18T12:08:39.199Z,2.67
2019-05-18T12:13:41.509Z,2.90
2019-05-18T12:18:43.899Z,3.02
2019-05-18T12:23:46.267Z,2.77
2019-05-18T12:28:48.571Z,2.83
2019-05-18T12:33:50.894Z,2.80
2019-05-18T12:38:53.261Z,2.83
2019-05-18T12:43:55.571Z,2.87
2019-05-18T12:48:57.885Z,2.70
2019-05-18T12:54:00.261Z,2.72
2019-05-18T12:59:02.636Z,3.05
2019-05-18T13:04:04.951Z,2.95
2019-05-18T13:09:07.326Z,2.37
2019-05-18T13:14:09.704Z,3.27
2019-05-18T13:19:12.011Z,3.05
2019-05-18T13:24:14.311Z,2.85
2019-05-18T13:29:16.693Z,2.62
2019-05-18T13:34:18.996Z,2.52
2019-05-18T13:39:21.323Z,2.80
2019-05-18T13:44:23.623Z,3.00
2019-05-18T13:49:26.700Z,2.50
2019-05-18T13:54:29.008Z,2.87
2019-05-18T13:59:31.316Z,2.60
2019-05-18T14:04:33.613Z,2.77
2019-05-18T14:09:35.915Z,3.00
2019-05-18T14:14:38.215Z,2.55
2019-05-18T14:19:40.533Z,2.50
2019-05-18T14:24:42.827Z,2.95
2019-05-18T14:29:45.128Z,3.67
2019-05-18T14:34:47.525Z,2.77
2019-05-18T14:39:49.893Z,3.15
2019-05-18T14:44:52.267Z,3.55
2019-05-18T14:49:54.567Z,3.02
2019-05-18T14:54:56.867Z,3.22
2019-05-18T15:00:02.257Z,2.65
2019-05-18T15:05:03.990Z,3.00
2019-05-18T15:10:06.767Z,3.47
2019-05-18T15:15:09.240Z,3.30
2019-05-18T15:20:11.818Z,3.43
2019-05-18T15:25:14.463Z,3.83
2019-05-18T15:30:17.200Z,3.60
2019-05-18T15:35:19.504Z,3.55
2019-05-18T15:40:21.876Z,3.22
2019-05-18T15:45:24.838Z,3.50
2019-05-18T15:50:27.380Z,3.77
2019-05-18T15:55:29.679Z,3.45
2019-05-18T16:00:32.006Z,3.47
2019-05-18T16:05:34.313Z,3.52
2019-05-18T16:10:36.611Z,3.47
2019-05-18T16:15:38.927Z,3.65
2019-05-18T16:20:41.252Z,4.05
2019-05-18T16:25:44.046Z,3.92
2019-05-18T16:30:46.437Z,3.37
2019-05-18T16:35:48.837Z,3.33
2019-05-18T16:40:51.219Z,3.62
2019-05-18T16:45:53.535Z,3.70
2019-05-18T16:50:55.848Z,3.90
2019-05-18T16:55:58.224Z,4.05
2019-05-18T17:01:00.529Z,4.22
2019-05-18T17:06:02.903Z,4.22
2019-05-18T17:11:05.379Z,3.42
2019-05-18T17:16:07.688Z,4.20
2019-05-18T17:21:09.996Z,4.70
2019-05-18T17:26:12.304Z,4.53
2019-05-18T17:31:14.613Z,4.70
2019-05-18T17:36:19.559Z,3.77
2019-05-18T17:41:21.011Z,4.35
2019-05-18T17:46:23.397Z,3.70
2019-05-18T17:51:25.735Z,4.22
2019-05-18T17:56:29.545Z,3.90
2019-05-18T18:01:31.927Z,3.60
2019-05-18T18:06:34.305Z,4.08
2019-05-18T18:11:36.612Z,3.90
2019-05-18T18:16:38.991Z,4.25
2019-05-18T18:21:41.296Z,4.25
2019-05-18T18:26:43.600Z,4.05
2019-05-18T18:31:45.910Z,4.00
2019-05-18T18:36:48.208Z,3.75
2019-05-18T18:41:50.517Z,4.50
2019-05-18T18:46:53.925Z,4.20
2019-05-18T18:51:56.242Z,5.12
2019-05-18T18:56:58.566Z,4.28
2019-05-18T19:02:00.953Z,4.28
2019-05-18T19:07:03.340Z,4.28
2019-05-18T19:12:05.736Z,4.35
2019-05-18T19:17:08.055Z,4.17
2019-05-18T19:22:10.368Z,3.85
2019-05-18T19:27:12.769Z,3.90
2019-05-18T19:32:15.202Z,4.20
2019-05-18T19:37:17.520Z,4.08
2019-05-18T19:42:19.843Z,3.62
2019-05-18T19:47:22.167Z,3.80
2019-05-18T19:52:24.496Z,4.35
2019-05-18T19:57:26.895Z,3.87
2019-05-18T20:02:29.204Z,3.70
2019-05-18T20:07:31.508Z,4.03
2019-05-18T20:12:33.843Z,3.72
2019-05-18T20:17:36.519Z,3.37
2019-05-18T20:22:39.000Z,3.60
2019-05-18T20:27:41.376Z,3.75
2019-05-18T20:32:43.671Z,4.30
2019-05-18T20:37:45.971Z,3.55
2019-05-18T20:42:48.282Z,3.45
2019-05-18T20:47:50.656Z,3.22
2019-05-18T20:52:52.959Z,3.25
2019-05-18T20:57:55.260Z,3.00
2019-05-18T21:02:57.568Z,3.87
2019-05-18T21:07:59.873Z,3.27
2019-05-18T21:13:02.183Z,3.40
2019-05-18T21:18:04.573Z,3.55
2019-05-18T21:23:06.871Z,3.08
2019-05-18T21:28:09.171Z,3.20
2019-05-18T21:33:11.484Z,3.02
2019-05-18T21:38:13.804Z,2.95
2019-05-18T21:43:16.171Z,3.17
2019-05-18T21:48:18.478Z,3.10
2019-05-18T21:53:20.848Z,3.20
2019-05-18T21:58:23.156Z,3.25
2019-05-18T22:03:25.748Z,3.20
2019-05-18T22:08:28.128Z,3.10
2019-05-18T22:13:30.500Z,3.35
2019-05-18T22:18:32.816Z,3.02
2019-05-18T22:23:35.183Z,3.22
2019-05-18T22:28:37.483Z,2.75
2019-05-18T22:33:39.791Z,2.85
2019-05-18T22:38:42.099Z,3.02
2019-05-18T22:43:44.405Z,3.15
2019-05-18T22:48:46.708Z,2.87
2019-05-18T22:53:49.037Z,3.15
2019-05-18T22:58:51.400Z,2.85
2019-05-18T23:03:53.792Z,3.10
2019-05-18T23:08:56.091Z,3.17
2019-05-18T23:13:58.400Z,3.08
2019-05-18T23:19:00.700Z,3.02
2019-05-18T23:24:03.047Z,2.42
2019-05-18T23:29:05.592Z,3.15
2019-05-18T23:34:07.908Z,2.77
2019-05-18T23:39:10.272Z,2.55
2019-05-18T23:44:12.576Z,2.50
2019-05-18T23:49:14.885Z,2.90
2019-05-18T23:54:17.261Z,2.60
2019-05-18T23:59:19.564Z,2.90
